sensor_id;sensor_type;location;lat;lon;timestamp;P1;durP1;ratioP1;P2;durP2;ratioP2
65033;SDS011;51601;51.356;12.458;2023-04-03T00:02:57;5.00;;;1.25;;
65033;SDS011;51601;51.356;12.458;2023-04-03T00:07:15;5.10;;;1.33;;
65033;SDS011;51601;51.356;12.458;2023-04-03T00:11:33;8.33;;;1.70;;
65033;SDS011;51601;51.356;12.458;2023-04-03T00:15:56;4.47;;;1.33;;
65033;SDS011;51601;51.356;12.458;2023-04-03T00:20:16;3.83;;;1.30;;
65033;SDS011;51601;51.356;12.458;2023-04-03T00:24:34;3.83;;;1.30;;
65033;SDS011;51601;51.356;12.458;2023-04-03T00:28:52;5.80;;;1.60;;
65033;SDS011;51601;51.356;12.458;2023-04-03T00:33:12;5.47;;;1.45;;
65033;SDS011;51601;51.356;12.458;2023-04-03T00:37:31;8.57;;;3.00;;
65033;SDS011;51601;51.356;12.458;2023-04-03T00:41:49;8.18;;;2.35;;
65033;SDS011;51601;51.356;12.458;2023-04-03T00:46:07;7.97;;;4.43;;
65033;SDS011;51601;51.356;12.458;2023-04-03T00:50:27;6.72;;;1.58;;
65033;SDS011;51601;51.356;12.458;2023-04-03T00:54:47;6.10;;;1.30;;
65033;SDS011;51601;51.356;12.458;2023-04-03T00:59:08;4.53;;;1.50;;
65033;SDS011;51601;51.356;12.458;2023-04-03T01:03:31;5.82;;;1.52;;
65033;SDS011;51601;51.356;12.458;2023-04-03T01:07:54;4.83;;;1.47;;
65033;SDS011;51601;51.356;12.458;2023-04-03T01:12:14;7.00;;;1.48;;
65033;SDS011;51601;51.356;12.458;2023-04-03T01:16:35;4.00;;;1.52;;
65033;SDS011;51601;51.356;12.458;2023-04-03T01:21:08;4.87;;;1.40;;
65033;SDS011;51601;51.356;12.458;2023-04-03T01:26:02;7.57;;;1.73;;
65033;SDS011;51601;51.356;12.458;2023-04-03T01:30:24;5.28;;;1.30;;
65033;SDS011;51601;51.356;12.458;2023-04-03T01:34:50;5.00;;;1.73;;
65033;SDS011;51601;51.356;12.458;2023-04-03T01:39:10;5.20;;;1.70;;
65033;SDS011;51601;51.356;12.458;2023-04-03T01:43:28;4.43;;;1.42;;
65033;SDS011;51601;51.356;12.458;2023-04-03T01:47:46;4.50;;;1.17;;
65033;SDS011;51601;51.356;12.458;2023-04-03T01:52:05;5.30;;;1.37;;
65033;SDS011;51601;51.356;12.458;2023-04-03T01:56:25;7.43;;;1.88;;
65033;SDS011;51601;51.356;12.458;2023-04-03T02:00:46;4.07;;;1.98;;
65033;SDS011;51601;51.356;12.458;2023-04-03T02:05:07;2.70;;;1.10;;
65033;SDS011;51601;51.356;12.458;2023-04-03T02:09:30;6.40;;;1.35;;
65033;SDS011;51601;51.356;12.458;2023-04-03T02:13:50;5.13;;;1.55;;
65033;SDS011;51601;51.356;12.458;2023-04-03T02:18:11;5.80;;;1.10;;
65033;SDS011;51601;51.356;12.458;2023-04-03T02:22:29;8.03;;;1.57;;
65033;SDS011;51601;51.356;12.458;2023-04-03T02:26:48;3.88;;;1.15;;
65033;SDS011;51601;51.356;12.458;2023-04-03T02:31:08;3.78;;;1.05;;
65033;SDS011;51601;51.356;12.458;2023-04-03T02:35:29;8.70;;;1.97;;
65033;SDS011;51601;51.356;12.458;2023-04-03T02:39:50;6.40;;;1.73;;
65033;SDS011;51601;51.356;12.458;2023-04-03T02:44:13;6.30;;;1.55;;
65033;SDS011;51601;51.356;12.458;2023-04-03T02:48:36;5.13;;;1.53;;
65033;SDS011;51601;51.356;12.458;2023-04-03T02:52:57;6.97;;;1.65;;
65033;SDS011;51601;51.356;12.458;2023-04-03T02:57:18;5.60;;;1.40;;
65033;SDS011;51601;51.356;12.458;2023-04-03T03:01:40;2.75;;;1.20;;
65033;SDS011;51601;51.356;12.458;2023-04-03T03:06:00;5.90;;;1.43;;
65033;SDS011;51601;51.356;12.458;2023-04-03T03:10:21;4.00;;;1.30;;
65033;SDS011;51601;51.356;12.458;2023-04-03T03:14:39;5.20;;;1.40;;
65033;SDS011;51601;51.356;12.458;2023-04-03T03:19:01;4.47;;;1.60;;
65033;SDS011;51601;51.356;12.458;2023-04-03T03:23:22;5.45;;;1.30;;
65033;SDS011;51601;51.356;12.458;2023-04-03T03:27:42;9.32;;;1.90;;
65033;SDS011;51601;51.356;12.458;2023-04-03T03:32:04;5.53;;;1.37;;
65033;SDS011;51601;51.356;12.458;2023-04-03T03:36:26;3.85;;;1.38;;
65033;SDS011;51601;51.356;12.458;2023-04-03T03:40:46;6.05;;;1.52;;
65033;SDS011;51601;51.356;12.458;2023-04-03T03:45:10;3.67;;;1.30;;
65033;SDS011;51601;51.356;12.458;2023-04-03T03:49:31;5.13;;;1.17;;
65033;SDS011;51601;51.356;12.458;2023-04-03T03:53:54;4.70;;;1.42;;
65033;SDS011;51601;51.356;12.458;2023-04-03T03:58:13;4.93;;;1.00;;
65033;SDS011;51601;51.356;12.458;2023-04-03T04:02:31;6.03;;;1.50;;
65033;SDS011;51601;51.356;12.458;2023-04-03T04:06:49;7.53;;;1.65;;
65033;SDS011;51601;51.356;12.458;2023-04-03T04:11:09;4.70;;;1.50;;
65033;SDS011;51601;51.356;12.458;2023-04-03T04:15:32;5.17;;;1.57;;
65033;SDS011;51601;51.356;12.458;2023-04-03T04:19:53;7.75;;;1.90;;
65033;SDS011;51601;51.356;12.458;2023-04-03T04:24:14;6.53;;;1.88;;
65033;SDS011;51601;51.356;12.458;2023-04-03T04:28:36;8.45;;;1.77;;
65033;SDS011;51601;51.356;12.458;2023-04-03T04:32:56;5.73;;;1.60;;
65033;SDS011;51601;51.356;12.458;2023-04-03T04:37:17;5.82;;;1.27;;
65033;SDS011;51601;51.356;12.458;2023-04-03T04:41:35;4.72;;;1.40;;
65033;SDS011;51601;51.356;12.458;2023-04-03T04:46:02;6.07;;;1.57;;
65033;SDS011;51601;51.356;12.458;2023-04-03T04:50:27;9.02;;;2.10;;
65033;SDS011;51601;51.356;12.458;2023-04-03T04:54:45;8.75;;;1.48;;
65033;SDS011;51601;51.356;12.458;2023-04-03T04:59:03;5.37;;;1.47;;
65033;SDS011;51601;51.356;12.458;2023-04-03T05:03:22;6.88;;;1.90;;
65033;SDS011;51601;51.356;12.458;2023-04-03T05:07:42;6.15;;;2.08;;
65033;SDS011;51601;51.356;12.458;2023-04-03T05:12:04;2.45;;;1.20;;
65033;SDS011;51601;51.356;12.458;2023-04-03T05:16:27;6.70;;;1.70;;
65033;SDS011;51601;51.356;12.458;2023-04-03T05:20:49;5.90;;;1.70;;
65033;SDS011;51601;51.356;12.458;2023-04-03T05:25:10;9.00;;;2.00;;
65033;SDS011;51601;51.356;12.458;2023-04-03T05:29:31;6.70;;;1.90;;
65033;SDS011;51601;51.356;12.458;2023-04-03T05:33:52;5.57;;;1.60;;
65033;SDS011;51601;51.356;12.458;2023-04-03T05:38:11;8.93;;;1.95;;
65033;SDS011;51601;51.356;12.458;2023-04-03T05:42:31;5.00;;;1.73;;
65033;SDS011;51601;51.356;12.458;2023-04-03T05:46:49;7.47;;;1.77;;
65033;SDS011;51601;51.356;12.458;2023-04-03T05:51:13;5.30;;;1.85;;
65033;SDS011;51601;51.356;12.458;2023-04-03T05:55:36;5.03;;;1.67;;
65033;SDS011;51601;51.356;12.458;2023-04-03T05:59:56;6.43;;;1.80;;
65033;SDS011;51601;51.356;12.458;2023-04-03T06:04:14;7.03;;;1.50;;
65033;SDS011;51601;51.356;12.458;2023-04-03T06:08:32;6.22;;;1.48;;
65033;SDS011;51601;51.356;12.458;2023-04-03T06:12:51;7.27;;;1.73;;
65033;SDS011;51601;51.356;12.458;2023-04-03T06:17:11;5.10;;;1.58;;
65033;SDS011;51601;51.356;12.458;2023-04-03T06:21:29;6.63;;;1.60;;
65033;SDS011;51601;51.356;12.458;2023-04-03T06:25:47;6.33;;;1.63;;
65033;SDS011;51601;51.356;12.458;2023-04-03T06:30:07;4.32;;;1.38;;
65033;SDS011;51601;51.356;12.458;2023-04-03T06:34:26;4.63;;;1.42;;
65033;SDS011;51601;51.356;12.458;2023-04-03T06:38:44;6.32;;;1.58;;
65033;SDS011;51601;51.356;12.458;2023-04-03T06:43:02;6.63;;;1.40;;
65033;SDS011;51601;51.356;12.458;2023-04-03T06:47:22;5.70;;;1.52;;
65033;SDS011;51601;51.356;12.458;2023-04-03T06:51:42;5.70;;;1.80;;
65033;SDS011;51601;51.356;12.458;2023-04-03T06:56:00;5.50;;;1.80;;
65033;SDS011;51601;51.356;12.458;2023-04-03T07:00:18;5.65;;;1.42;;
65033;SDS011;51601;51.356;12.458;2023-04-03T07:04:40;6.28;;;1.40;;
65033;SDS011;51601;51.356;12.458;2023-04-03T07:09:00;6.00;;;1.50;;
65033;SDS011;51601;51.356;12.458;2023-04-03T07:13:18;5.82;;;1.50;;
65033;SDS011;51601;51.356;12.458;2023-04-03T07:17:36;4.80;;;1.48;;
65033;SDS011;51601;51.356;12.458;2023-04-03T07:21:55;6.00;;;1.55;;
65033;SDS011;51601;51.356;12.458;2023-04-03T07:26:15;4.87;;;1.40;;
65033;SDS011;51601;51.356;12.458;2023-04-03T07:30:33;3.85;;;1.30;;
65033;SDS011;51601;51.356;12.458;2023-04-03T07:34:51;4.63;;;1.30;;
65033;SDS011;51601;51.356;12.458;2023-04-03T07:39:14;5.50;;;1.40;;
65033;SDS011;51601;51.356;12.458;2023-04-03T07:43:33;3.92;;;1.40;;
65033;SDS011;51601;51.356;12.458;2023-04-03T07:47:52;5.72;;;1.40;;
65033;SDS011;51601;51.356;12.458;2023-04-03T07:52:10;4.37;;;1.30;;
65033;SDS011;51601;51.356;12.458;2023-04-03T07:56:29;4.18;;;1.45;;
65033;SDS011;51601;51.356;12.458;2023-04-03T08:00:49;5.15;;;1.35;;
65033;SDS011;51601;51.356;12.458;2023-04-03T08:05:07;5.45;;;1.50;;
65033;SDS011;51601;51.356;12.458;2023-04-03T08:09:28;4.60;;;1.30;;
65033;SDS011;51601;51.356;12.458;2023-04-03T08:13:47;4.18;;;1.20;;
65033;SDS011;51601;51.356;12.458;2023-04-03T08:18:07;4.60;;;1.42;;
65033;SDS011;51601;51.356;12.458;2023-04-03T08:22:25;4.80;;;1.50;;
65033;SDS011;51601;51.356;12.458;2023-04-03T08:26:43;5.35;;;1.48;;
65033;SDS011;51601;51.356;12.458;2023-04-03T08:31:03;6.43;;;1.48;;
65033;SDS011;51601;51.356;12.458;2023-04-03T08:35:22;5.03;;;1.67;;
65033;SDS011;51601;51.356;12.458;2023-04-03T08:39:40;6.35;;;1.50;;
65033;SDS011;51601;51.356;12.458;2023-04-03T08:44:03;5.13;;;1.35;;
65033;SDS011;51601;51.356;12.458;2023-04-03T08:48:34;4.90;;;1.50;;
65033;SDS011;51601;51.356;12.458;2023-04-03T08:52:57;7.77;;;1.80;;
65033;SDS011;51601;51.356;12.458;2023-04-03T08:57:17;8.38;;;1.92;;
65033;SDS011;51601;51.356;12.458;2023-04-03T09:01:45;3.67;;;1.30;;
65033;SDS011;51601;51.356;12.458;2023-04-03T09:06:05;3.80;;;1.43;;
65033;SDS011;51601;51.356;12.458;2023-04-03T09:10:28;4.53;;;1.30;;
65033;SDS011;51601;51.356;12.458;2023-04-03T09:14:50;4.97;;;1.48;;
65033;SDS011;51601;51.356;12.458;2023-04-03T09:19:18;4.03;;;1.40;;
65033;SDS011;51601;51.356;12.458;2023-04-03T09:23:57;4.25;;;1.35;;
65033;SDS011;51601;51.356;12.458;2023-04-03T09:28:20;5.25;;;1.50;;
65033;SDS011;51601;51.356;12.458;2023-04-03T09:32:40;6.05;;;1.42;;
65033;SDS011;51601;51.356;12.458;2023-04-03T09:36:59;5.60;;;1.60;;
65033;SDS011;51601;51.356;12.458;2023-04-03T09:41:24;5.70;;;1.58;;
65033;SDS011;51601;51.356;12.458;2023-04-03T09:45:44;2.83;;;1.25;;
65033;SDS011;51601;51.356;12.458;2023-04-03T09:50:10;3.47;;;1.37;;
65033;SDS011;51601;51.356;12.458;2023-04-03T09:54:38;5.70;;;1.70;;
65033;SDS011;51601;51.356;12.458;2023-04-03T09:59:08;4.88;;;1.65;;
65033;SDS011;51601;51.356;12.458;2023-04-03T10:03:33;5.07;;;1.53;;
65033;SDS011;51601;51.356;12.458;2023-04-03T10:08:11;6.85;;;1.40;;
65033;SDS011;51601;51.356;12.458;2023-04-03T10:12:39;6.45;;;1.58;;
65033;SDS011;51601;51.356;12.458;2023-04-03T10:17:01;6.78;;;1.90;;
65033;SDS011;51601;51.356;12.458;2023-04-03T10:21:33;5.00;;;1.20;;
65033;SDS011;51601;51.356;12.458;2023-04-03T10:26:01;4.75;;;1.35;;
65033;SDS011;51601;51.356;12.458;2023-04-03T10:30:30;5.75;;;1.50;;
65033;SDS011;51601;51.356;12.458;2023-04-03T10:34:58;4.20;;;1.60;;
65033;SDS011;51601;51.356;12.458;2023-04-03T10:39:27;3.83;;;1.42;;
65033;SDS011;51601;51.356;12.458;2023-04-03T10:43:59;4.82;;;1.40;;
65033;SDS011;51601;51.356;12.458;2023-04-03T10:48:33;5.13;;;1.60;;
65033;SDS011;51601;51.356;12.458;2023-04-03T10:53:03;4.70;;;1.65;;
65033;SDS011;51601;51.356;12.458;2023-04-03T10:57:24;6.53;;;1.88;;
65033;SDS011;51601;51.356;12.458;2023-04-03T11:01:46;6.93;;;1.90;;
65033;SDS011;51601;51.356;12.458;2023-04-03T11:06:07;4.77;;;1.53;;
65033;SDS011;51601;51.356;12.458;2023-04-03T11:10:31;5.13;;;1.48;;
65033;SDS011;51601;51.356;12.458;2023-04-03T11:14:55;6.45;;;1.52;;
65033;SDS011;51601;51.356;12.458;2023-04-03T11:19:15;6.07;;;1.80;;
65033;SDS011;51601;51.356;12.458;2023-04-03T11:23:38;4.43;;;1.70;;
65033;SDS011;51601;51.356;12.458;2023-04-03T11:28:09;6.25;;;1.73;;
65033;SDS011;51601;51.356;12.458;2023-04-03T11:32:44;5.77;;;1.67;;
65033;SDS011;51601;51.356;12.458;2023-04-03T11:37:27;4.85;;;1.60;;
65033;SDS011;51601;51.356;12.458;2023-04-03T11:41:48;5.35;;;1.63;;
65033;SDS011;51601;51.356;12.458;2023-04-03T11:46:14;4.78;;;1.40;;
65033;SDS011;51601;51.356;12.458;2023-04-03T11:50:41;4.37;;;1.47;;
65033;SDS011;51601;51.356;12.458;2023-04-03T11:55:00;4.45;;;1.58;;
65033;SDS011;51601;51.356;12.458;2023-04-03T11:59:22;5.03;;;1.60;;
65033;SDS011;51601;51.356;12.458;2023-04-03T12:08:44;4.20;;;1.48;;
65033;SDS011;51601;51.356;12.458;2023-04-03T12:13:12;4.40;;;1.50;;
65033;SDS011;51601;51.356;12.458;2023-04-03T12:17:32;6.10;;;1.73;;
65033;SDS011;51601;51.356;12.458;2023-04-03T12:26:38;4.85;;;1.73;;
65033;SDS011;51601;51.356;12.458;2023-04-03T12:31:04;6.28;;;1.92;;
65033;SDS011;51601;51.356;12.458;2023-04-03T12:35:28;4.67;;;1.60;;
65033;SDS011;51601;51.356;12.458;2023-04-03T12:39:54;5.43;;;1.50;;
65033;SDS011;51601;51.356;12.458;2023-04-03T12:44:27;5.30;;;1.40;;
65033;SDS011;51601;51.356;12.458;2023-04-03T12:48:56;3.93;;;1.57;;
65033;SDS011;51601;51.356;12.458;2023-04-03T12:53:18;4.63;;;1.60;;
65033;SDS011;51601;51.356;12.458;2023-04-03T12:57:39;5.97;;;2.08;;
65033;SDS011;51601;51.356;12.458;2023-04-03T13:02:00;6.17;;;1.83;;
65033;SDS011;51601;51.356;12.458;2023-04-03T13:06:24;3.85;;;1.50;;
65033;SDS011;51601;51.356;12.458;2023-04-03T13:10:49;3.97;;;1.65;;
65033;SDS011;51601;51.356;12.458;2023-04-03T13:15:14;4.03;;;1.73;;
65033;SDS011;51601;51.356;12.458;2023-04-03T13:19:33;5.00;;;1.60;;
65033;SDS011;51601;51.356;12.458;2023-04-03T13:23:54;7.20;;;1.75;;
65033;SDS011;51601;51.356;12.458;2023-04-03T13:28:34;5.28;;;1.70;;
65033;SDS011;51601;51.356;12.458;2023-04-03T13:32:57;5.50;;;1.60;;
65033;SDS011;51601;51.356;12.458;2023-04-03T13:37:23;5.30;;;1.50;;
65033;SDS011;51601;51.356;12.458;2023-04-03T13:41:46;6.53;;;1.85;;
65033;SDS011;51601;51.356;12.458;2023-04-03T13:46:22;5.00;;;1.47;;
65033;SDS011;51601;51.356;12.458;2023-04-03T13:50:53;4.15;;;1.50;;
65033;SDS011;51601;51.356;12.458;2023-04-03T13:55:19;5.10;;;1.50;;
65033;SDS011;51601;51.356;12.458;2023-04-03T13:59:42;6.30;;;1.60;;
65033;SDS011;51601;51.356;12.458;2023-04-03T14:04:09;5.43;;;1.57;;
65033;SDS011;51601;51.356;12.458;2023-04-03T14:08:37;5.50;;;1.60;;
65033;SDS011;51601;51.356;12.458;2023-04-03T14:13:00;4.28;;;1.40;;
65033;SDS011;51601;51.356;12.458;2023-04-03T14:17:22;6.20;;;1.80;;
65033;SDS011;51601;51.356;12.458;2023-04-03T14:21:42;6.35;;;1.88;;
65033;SDS011;51601;51.356;12.458;2023-04-03T14:26:02;4.88;;;1.92;;
65033;SDS011;51601;51.356;12.458;2023-04-03T14:30:22;7.77;;;2.00;;
65033;SDS011;51601;51.356;12.458;2023-04-03T14:34:46;6.07;;;1.42;;
65033;SDS011;51601;51.356;12.458;2023-04-03T14:39:07;5.45;;;1.80;;
65033;SDS011;51601;51.356;12.458;2023-04-03T14:43:29;7.30;;;2.03;;
65033;SDS011;51601;51.356;12.458;2023-04-03T14:47:50;4.00;;;1.60;;
65033;SDS011;51601;51.356;12.458;2023-04-03T14:52:16;4.57;;;1.98;;
65033;SDS011;51601;51.356;12.458;2023-04-03T14:56:37;4.50;;;1.40;;
65033;SDS011;51601;51.356;12.458;2023-04-03T15:00:57;5.13;;;1.90;;
65033;SDS011;51601;51.356;12.458;2023-04-03T15:05:17;6.40;;;1.67;;
65033;SDS011;51601;51.356;12.458;2023-04-03T15:09:38;9.63;;;1.67;;
65033;SDS011;51601;51.356;12.458;2023-04-03T15:13:59;3.83;;;1.23;;
65033;SDS011;51601;51.356;12.458;2023-04-03T15:18:22;3.92;;;1.25;;
65033;SDS011;51601;51.356;12.458;2023-04-03T15:22:47;4.95;;;1.63;;
65033;SDS011;51601;51.356;12.458;2023-04-03T15:27:05;4.35;;;1.40;;
65033;SDS011;51601;51.356;12.458;2023-04-03T15:31:27;3.90;;;1.43;;
65033;SDS011;51601;51.356;12.458;2023-04-03T15:35:49;4.32;;;1.30;;
65033;SDS011;51601;51.356;12.458;2023-04-03T15:40:24;5.18;;;1.60;;
65033;SDS011;51601;51.356;12.458;2023-04-03T15:44:45;4.87;;;1.73;;
65033;SDS011;51601;51.356;12.458;2023-04-03T15:49:07;3.83;;;1.30;;
65033;SDS011;51601;51.356;12.458;2023-04-03T15:53:29;3.85;;;1.73;;
65033;SDS011;51601;51.356;12.458;2023-04-03T15:57:49;4.57;;;1.83;;
65033;SDS011;51601;51.356;12.458;2023-04-03T16:02:10;3.88;;;1.50;;
65033;SDS011;51601;51.356;12.458;2023-04-03T16:06:34;4.65;;;1.65;;
65033;SDS011;51601;51.356;12.458;2023-04-03T16:10:57;6.03;;;2.10;;
65033;SDS011;51601;51.356;12.458;2023-04-03T16:15:16;4.20;;;1.70;;
65033;SDS011;51601;51.356;12.458;2023-04-03T16:19:37;5.88;;;2.25;;
65033;SDS011;51601;51.356;12.458;2023-04-03T16:23:56;5.25;;;2.00;;
65033;SDS011;51601;51.356;12.458;2023-04-03T16:28:21;4.97;;;2.00;;
65033;SDS011;51601;51.356;12.458;2023-04-03T16:32:44;5.82;;;2.05;;
65033;SDS011;51601;51.356;12.458;2023-04-03T16:37:08;5.30;;;1.90;;
65033;SDS011;51601;51.356;12.458;2023-04-03T16:41:29;4.33;;;1.77;;
65033;SDS011;51601;51.356;12.458;2023-04-03T16:45:52;5.43;;;2.33;;
65033;SDS011;51601;51.356;12.458;2023-04-03T16:50:11;4.82;;;2.10;;
65033;SDS011;51601;51.356;12.458;2023-04-03T16:54:37;5.60;;;2.00;;
65033;SDS011;51601;51.356;12.458;2023-04-03T16:59:00;3.90;;;1.63;;
65033;SDS011;51601;51.356;12.458;2023-04-03T17:03:26;4.22;;;1.80;;
65033;SDS011;51601;51.356;12.458;2023-04-03T17:07:48;6.03;;;1.80;;
65033;SDS011;51601;51.356;12.458;2023-04-03T17:12:06;6.43;;;2.00;;
65033;SDS011;51601;51.356;12.458;2023-04-03T17:16:28;8.18;;;3.60;;
65033;SDS011;51601;51.356;12.458;2023-04-03T17:20:53;4.15;;;1.60;;
65033;SDS011;51601;51.356;12.458;2023-04-03T17:25:13;4.93;;;1.90;;
65033;SDS011;51601;51.356;12.458;2023-04-03T17:29:34;4.28;;;2.00;;
65033;SDS011;51601;51.356;12.458;2023-04-03T17:33:52;5.85;;;2.15;;
65033;SDS011;51601;51.356;12.458;2023-04-03T17:38:12;4.90;;;1.88;;
65033;SDS011;51601;51.356;12.458;2023-04-03T17:42:34;5.63;;;1.80;;
65033;SDS011;51601;51.356;12.458;2023-04-03T17:46:55;5.93;;;2.00;;
65033;SDS011;51601;51.356;12.458;2023-04-03T17:51:14;5.28;;;1.77;;
65033;SDS011;51601;51.356;12.458;2023-04-03T17:55:37;6.37;;;2.00;;
65033;SDS011;51601;51.356;12.458;2023-04-03T17:59:56;6.18;;;1.70;;
65033;SDS011;51601;51.356;12.458;2023-04-03T18:04:13;5.00;;;1.90;;
65033;SDS011;51601;51.356;12.458;2023-04-03T18:08:32;4.50;;;1.93;;
65033;SDS011;51601;51.356;12.458;2023-04-03T18:12:54;5.22;;;1.85;;
65033;SDS011;51601;51.356;12.458;2023-04-03T18:17:14;5.40;;;2.00;;
65033;SDS011;51601;51.356;12.458;2023-04-03T18:21:35;5.78;;;2.20;;
65033;SDS011;51601;51.356;12.458;2023-04-03T18:25:56;16.00;;;14.47;;
65033;SDS011;51601;51.356;12.458;2023-04-03T18:30:19;9.52;;;6.43;;
65033;SDS011;51601;51.356;12.458;2023-04-03T18:34:38;6.65;;;2.42;;
65033;SDS011;51601;51.356;12.458;2023-04-03T18:39:00;93.67;;;61.20;;
65033;SDS011;51601;51.356;12.458;2023-04-03T18:43:21;40.38;;;36.08;;
65033;SDS011;51601;51.356;12.458;2023-04-03T18:47:46;51.50;;;40.17;;
65033;SDS011;51601;51.356;12.458;2023-04-03T18:52:06;134.13;;;78.87;;
65033;SDS011;51601;51.356;12.458;2023-04-03T18:56:27;52.83;;;41.28;;
65033;SDS011;51601;51.356;12.458;2023-04-03T19:00:48;13.95;;;9.20;;
65033;SDS011;51601;51.356;12.458;2023-04-03T19:05:08;8.38;;;3.72;;
65033;SDS011;51601;51.356;12.458;2023-04-03T19:09:30;13.00;;;7.20;;
65033;SDS011;51601;51.356;12.458;2023-04-03T19:13:48;11.77;;;6.30;;
65033;SDS011;51601;51.356;12.458;2023-04-03T19:18:28;12.13;;;6.15;;
65033;SDS011;51601;51.356;12.458;2023-04-03T19:22:47;9.43;;;4.73;;
65033;SDS011;51601;51.356;12.458;2023-04-03T19:27:07;8.50;;;3.30;;
65033;SDS011;51601;51.356;12.458;2023-04-03T19:31:25;5.68;;;2.30;;
65033;SDS011;51601;51.356;12.458;2023-04-03T19:35:43;7.63;;;2.47;;
65033;SDS011;51601;51.356;12.458;2023-04-03T19:40:03;4.55;;;1.92;;
65033;SDS011;51601;51.356;12.458;2023-04-03T19:44:22;7.35;;;2.17;;
65033;SDS011;51601;51.356;12.458;2023-04-03T19:48:40;5.20;;;2.20;;
65033;SDS011;51601;51.356;12.458;2023-04-03T19:52:58;7.10;;;2.40;;
65033;SDS011;51601;51.356;12.458;2023-04-03T19:57:18;6.03;;;2.35;;
65033;SDS011;51601;51.356;12.458;2023-04-03T20:01:38;6.97;;;2.38;;
65033;SDS011;51601;51.356;12.458;2023-04-03T20:05:56;6.43;;;2.27;;
65033;SDS011;51601;51.356;12.458;2023-04-03T20:10:14;5.97;;;2.08;;
65033;SDS011;51601;51.356;12.458;2023-04-03T20:14:33;6.35;;;2.00;;
65033;SDS011;51601;51.356;12.458;2023-04-03T20:18:53;7.57;;;2.60;;
65033;SDS011;51601;51.356;12.458;2023-04-03T20:23:11;6.50;;;2.03;;
65033;SDS011;51601;51.356;12.458;2023-04-03T20:27:29;5.78;;;1.90;;
65033;SDS011;51601;51.356;12.458;2023-04-03T20:31:49;4.60;;;1.88;;
65033;SDS011;51601;51.356;12.458;2023-04-03T20:36:08;5.80;;;2.10;;
65033;SDS011;51601;51.356;12.458;2023-04-03T20:40:26;8.07;;;2.10;;
65033;SDS011;51601;51.356;12.458;2023-04-03T20:44:44;5.90;;;1.98;;
65033;SDS011;51601;51.356;12.458;2023-04-03T20:49:04;6.10;;;2.23;;
65033;SDS011;51601;51.356;12.458;2023-04-03T20:53:24;6.05;;;2.15;;
65033;SDS011;51601;51.356;12.458;2023-04-03T20:57:42;6.45;;;1.90;;
65033;SDS011;51601;51.356;12.458;2023-04-03T21:02:11;6.67;;;2.30;;
65033;SDS011;51601;51.356;12.458;2023-04-03T21:20:43;5.80;;;1.70;;
65033;SDS011;51601;51.356;12.458;2023-04-03T21:25:02;5.20;;;2.05;;
65033;SDS011;51601;51.356;12.458;2023-04-03T21:29:20;4.75;;;1.55;;
65033;SDS011;51601;51.356;12.458;2023-04-03T21:33:38;5.47;;;1.70;;
65033;SDS011;51601;51.356;12.458;2023-04-03T21:38:01;15.32;;;2.15;;
65033;SDS011;51601;51.356;12.458;2023-04-03T21:42:20;5.55;;;1.90;;
65033;SDS011;51601;51.356;12.458;2023-04-03T21:46:38;5.70;;;2.03;;
65033;SDS011;51601;51.356;12.458;2023-04-03T21:51:03;6.60;;;2.33;;
65033;SDS011;51601;51.356;12.458;2023-04-03T21:55:25;7.80;;;1.60;;
65033;SDS011;51601;51.356;12.458;2023-04-03T21:59:45;5.65;;;1.70;;
65033;SDS011;51601;51.356;12.458;2023-04-03T22:04:03;3.63;;;1.30;;
65033;SDS011;51601;51.356;12.458;2023-04-03T22:08:21;8.50;;;3.20;;
65033;SDS011;51601;51.356;12.458;2023-04-03T22:12:41;5.60;;;1.95;;
65033;SDS011;51601;51.356;12.458;2023-04-03T22:17:00;5.37;;;1.47;;
65033;SDS011;51601;51.356;12.458;2023-04-03T22:21:18;4.38;;;1.50;;
65033;SDS011;51601;51.356;12.458;2023-04-03T22:25:36;4.90;;;1.90;;
65033;SDS011;51601;51.356;12.458;2023-04-03T22:29:56;6.10;;;2.00;;
65033;SDS011;51601;51.356;12.458;2023-04-03T22:34:15;7.70;;;1.80;;
65033;SDS011;51601;51.356;12.458;2023-04-03T22:38:37;4.78;;;1.77;;
65033;SDS011;51601;51.356;12.458;2023-04-03T22:42:58;5.60;;;1.90;;
65033;SDS011;51601;51.356;12.458;2023-04-03T22:47:17;5.90;;;1.67;;
65033;SDS011;51601;51.356;12.458;2023-04-03T22:51:37;5.57;;;1.60;;
65033;SDS011;51601;51.356;12.458;2023-04-03T22:55:55;4.95;;;1.60;;
65033;SDS011;51601;51.356;12.458;2023-04-03T23:00:14;4.40;;;1.80;;
65033;SDS011;51601;51.356;12.458;2023-04-03T23:04:36;4.60;;;1.55;;
65033;SDS011;51601;51.356;12.458;2023-04-03T23:08:55;5.47;;;1.52;;
65033;SDS011;51601;51.356;12.458;2023-04-03T23:13:13;4.70;;;1.40;;
65033;SDS011;51601;51.356;12.458;2023-04-03T23:17:31;5.40;;;1.60;;
65033;SDS011;51601;51.356;12.458;2023-04-03T23:21:54;5.80;;;1.85;;
65033;SDS011;51601;51.356;12.458;2023-04-03T23:26:14;5.40;;;1.50;;
65033;SDS011;51601;51.356;12.458;2023-04-03T23:30:32;6.57;;;1.80;;
65033;SDS011;51601;51.356;12.458;2023-04-03T23:34:50;5.45;;;1.65;;
65033;SDS011;51601;51.356;12.458;2023-04-03T23:39:09;4.30;;;1.42;;
65033;SDS011;51601;51.356;12.458;2023-04-03T23:43:29;6.50;;;1.90;;
65033;SDS011;51601;51.356;12.458;2023-04-03T23:47:47;5.20;;;1.55;;
65033;SDS011;51601;51.356;12.458;2023-04-03T23:52:05;4.90;;;1.65;;
65033;SDS011;51601;51.356;12.458;2023-04-03T23:56:24;7.30;;;1.93;;
